Time;durP1;ratioP1;P1;durP2;ratioP2;P2;SDS_P1;SDS_P2;PMS_P1;PMS_P2;Temp;Humidity;BMP_temperature;BMP_pressure;BME280_temperature;BME280_humidity;BME280_pressure;Samples;Min_cycle;Max_cycle;Signal;HPM_P1;HPM_P2
2023/04/18 00:01:46;;;;;;;6.82;6.13;;;7.40;99.90;;;;;;5055307;28;20205;-63
2023/04/18 00:04:13;;;;;;;7.93;6.55;;;7.40;99.90;;;;;;5055307;28;20281;-63
2023/04/18 00:06:39;;;;;;;9.82;6.45;;;7.40;99.90;;;;;;5054588;28;20217;-63
2023/04/18 00:09:06;;;;;;;9.30;6.53;;;7.30;99.90;;;;;;5054636;28;20198;-63
2023/04/18 00:11:33;;;;;;;7.43;6.32;;;7.30;99.90;;;;;;5054843;28;20197;-63
2023/04/18 00:14:02;;;;;;;7.00;6.20;;;7.20;99.90;;;;;;5054213;28;20236;-62
2023/04/18 00:16:29;;;;;;;6.43;5.65;;;7.20;99.90;;;;;;5054149;28;20276;-63
2023/04/18 00:18:56;;;;;;;8.18;5.97;;;7.10;99.90;;;;;;5053566;28;20229;-63
2023/04/18 00:21:24;;;;;;;9.70;6.78;;;7.10;99.90;;;;;;5053379;28;20205;-63
2023/04/18 00:23:51;;;;;;;9.35;6.65;;;7.10;99.90;;;;;;5053243;28;20235;-63
2023/04/18 00:26:18;;;;;;;7.72;6.82;;;7.00;99.90;;;;;;5053792;28;20232;-63
2023/04/18 00:28:44;;;;;;;9.35;7.00;;;7.00;99.90;;;;;;5057319;28;20197;-62
2023/04/18 00:31:13;;;;;;;10.80;6.60;;;6.90;99.90;;;;;;5057981;28;20207;-65
2023/04/18 00:33:39;;;;;;;8.70;6.75;;;6.90;99.90;;;;;;5061579;28;20759;-63
2023/04/18 00:36:06;;;;;;;8.43;6.72;;;6.90;99.90;;;;;;5059886;28;20229;-64
2023/04/18 00:38:33;;;;;;;10.23;7.07;;;6.90;99.90;;;;;;5057683;28;20205;-62
2023/04/18 00:41:00;;;;;;;8.73;7.30;;;7.00;99.90;;;;;;5057392;28;20205;-64
2023/04/18 00:43:27;;;;;;;7.75;6.63;;;7.00;99.90;;;;;;5056972;28;20204;-64
2023/04/18 00:45:55;;;;;;;8.52;7.40;;;7.00;99.90;;;;;;5057510;28;20197;-64
2023/04/18 00:48:24;;;;;;;8.45;6.57;;;7.00;99.90;;;;;;5056904;28;20745;-63
2023/04/18 00:50:51;;;;;;;10.95;7.90;;;6.90;99.90;;;;;;5056823;28;20201;-63
2023/04/18 00:53:18;;;;;;;10.07;7.15;;;6.90;99.90;;;;;;5057251;28;20632;-63
2023/04/18 00:55:45;;;;;;;10.20;7.05;;;6.90;99.90;;;;;;5056768;28;20208;-62
2023/04/18 00:58:12;;;;;;;11.68;7.85;;;6.90;99.90;;;;;;5056762;28;20232;-63
2023/04/18 01:00:39;;;;;;;11.05;7.18;;;6.90;99.90;;;;;;5057351;28;20202;-64
2023/04/18 01:03:07;;;;;;;10.38;7.13;;;6.90;99.90;;;;;;5057852;28;20271;-64
2023/04/18 01:05:36;;;;;;;10.25;8.05;;;6.90;99.90;;;;;;5058840;28;20594;-63
2023/04/18 01:08:03;;;;;;;9.90;8.57;;;6.80;99.90;;;;;;5059635;28;20591;-63
2023/04/18 01:10:30;;;;;;;12.13;7.35;;;6.80;99.90;;;;;;5058834;28;20208;-63
2023/04/18 01:13:11;;;;;;;9.15;7.13;;;6.80;99.90;;;;;;5058430;28;20201;-63
2023/04/18 01:15:40;;;;;;;8.43;6.50;;;6.80;99.90;;;;;;5057444;28;20201;-64
2023/04/18 01:18:07;;;;;;;11.50;8.45;;;6.80;99.90;;;;;;5056304;28;20275;-64
2023/04/18 01:20:37;;;;;;;9.43;7.20;;;6.80;99.90;;;;;;5056668;28;20229;-63
2023/04/18 01:23:04;;;;;;;8.35;6.65;;;6.80;99.90;;;;;;5056161;28;20576;-63
2023/04/18 01:25:33;;;;;;;9.15;7.45;;;6.80;99.90;;;;;;5056525;28;20247;-64
2023/04/18 01:27:59;;;;;;;8.77;7.60;;;6.80;99.90;;;;;;5056387;28;20722;-63
2023/04/18 01:30:26;;;;;;;10.82;7.18;;;6.80;99.90;;;;;;5057912;28;20198;-63
2023/04/18 01:32:53;;;;;;;8.45;6.40;;;6.80;99.90;;;;;;5060421;28;20572;-65
2023/04/18 01:35:20;;;;;;;8.95;7.43;;;6.80;99.90;;;;;;5060012;28;20288;-63
2023/04/18 01:37:47;;;;;;;10.57;8.10;;;6.80;99.90;;;;;;5059005;28;20303;-63
2023/04/18 01:40:14;;;;;;;11.57;8.45;;;6.80;99.90;;;;;;5057852;28;20208;-64
2023/04/18 01:42:42;;;;;;;13.32;8.75;;;6.80;99.90;;;;;;5059965;28;20719;-63
2023/04/18 01:45:11;;;;;;;10.40;8.38;;;6.70;99.90;;;;;;5060043;28;20213;-63
2023/04/18 01:47:37;;;;;;;12.63;9.40;;;6.70;99.90;;;;;;5060402;28;20308;-63
2023/04/18 01:50:05;;;;;;;10.60;8.43;;;6.60;99.90;;;;;;5059073;28;20205;-62
2023/04/18 01:52:32;;;;;;;13.10;8.95;;;6.60;99.90;;;;;;5058019;28;20205;-63
2023/04/18 01:55:00;;;;;;;11.93;9.40;;;6.60;99.90;;;;;;5058037;28;20206;-63
2023/04/18 01:57:27;;;;;;;14.52;9.25;;;6.60;99.90;;;;;;5056794;28;20225;-63
2023/04/18 01:59:55;;;;;;;14.15;9.25;;;6.60;99.90;;;;;;5056061;28;20198;-63
2023/04/18 02:02:22;;;;;;;11.07;9.13;;;6.60;99.90;;;;;;5055749;28;20213;-63
2023/04/18 02:04:49;;;;;;;13.20;9.35;;;6.60;99.90;;;;;;5055629;28;20288;-63
2023/04/18 02:07:16;;;;;;;12.55;10.05;;;6.60;99.90;;;;;;5055782;28;20222;-63
2023/04/18 02:09:42;;;;;;;12.15;9.07;;;6.60;99.90;;;;;;5055440;28;20202;-62
2023/04/18 02:12:11;;;;;;;12.70;10.15;;;6.60;99.90;;;;;;5055055;28;20679;-63
2023/04/18 02:14:38;;;;;;;13.85;9.35;;;6.60;99.90;;;;;;5055191;28;20201;-63
2023/04/18 02:17:06;;;;;;;11.82;9.60;;;6.50;99.90;;;;;;5063055;28;20313;-62
2023/04/18 02:19:33;;;;;;;12.27;8.95;;;6.50;99.90;;;;;;5058400;28;20569;-63
2023/04/18 02:22:00;;;;;;;17.00;10.98;;;6.50;99.90;;;;;;5055144;28;20210;-64
2023/04/18 02:24:27;;;;;;;13.50;9.30;;;6.50;99.90;;;;;;5054760;28;20210;-64
2023/04/18 02:26:53;;;;;;;14.05;10.32;;;6.40;99.90;;;;;;5054752;28;20312;-64
2023/04/18 02:29:20;;;;;;;13.52;9.80;;;6.40;99.90;;;;;;5055458;28;20289;-63
2023/04/18 02:31:47;;;;;;;13.77;10.68;;;6.40;99.90;;;;;;5054995;28;20285;-62
2023/04/18 02:34:15;;;;;;;15.98;11.35;;;6.30;99.90;;;;;;5054865;28;20683;-64
2023/04/18 02:36:42;;;;;;;17.55;12.15;;;6.20;99.90;;;;;;5055063;28;20221;-63
2023/04/18 02:39:09;;;;;;;14.88;11.00;;;6.20;99.90;;;;;;5057161;28;20201;-64
2023/04/18 02:41:38;;;;;;;13.32;10.63;;;6.20;99.90;;;;;;5054935;28;20211;-65
2023/04/18 02:44:05;;;;;;;14.27;10.30;;;6.20;99.90;;;;;;5054625;28;20251;-64
2023/04/18 02:46:32;;;;;;;15.13;10.93;;;6.10;99.90;;;;;;5054771;28;20218;-64
2023/04/18 02:48:59;;;;;;;17.00;11.02;;;6.20;99.90;;;;;;5054378;28;20576;-63
2023/04/18 02:51:27;;;;;;;16.10;11.10;;;6.10;99.90;;;;;;5054538;28;20205;-64
2023/04/18 02:53:55;;;;;;;16.17;11.55;;;6.10;99.90;;;;;;5055686;28;20202;-64
2023/04/18 02:56:22;;;;;;;16.20;11.63;;;6.10;99.90;;;;;;5055424;28;20221;-63
2023/04/18 02:58:49;;;;;;;16.65;11.75;;;6.10;99.90;;;;;;5055462;28;20292;-64
2023/04/18 03:01:17;;;;;;;15.50;11.05;;;6.10;99.90;;;;;;5059453;28;20198;-62
2023/04/18 03:03:44;;;;;;;13.18;11.05;;;6.10;99.90;;;;;;5062577;28;20205;-64
2023/04/18 03:06:11;;;;;;;16.58;12.35;;;6.10;99.90;;;;;;5063982;28;20221;-63
2023/04/18 03:08:39;;;;;;;16.23;12.27;;;6.20;99.90;;;;;;5063283;28;20236;-64
2023/04/18 03:11:06;;;;;;;15.38;11.98;;;6.10;99.90;;;;;;5063404;28;20197;-63
2023/04/18 03:13:34;;;;;;;18.48;12.07;;;6.10;99.90;;;;;;5064170;28;20212;-64
2023/04/18 03:16:01;;;;;;;18.95;11.48;;;6.10;99.90;;;;;;5063379;28;20212;-64
2023/04/18 03:18:28;;;;;;;19.23;11.95;;;6.10;99.90;;;;;;5061418;28;20229;-64
2023/04/18 03:20:55;;;;;;;18.73;11.82;;;6.10;99.90;;;;;;5058397;28;20205;-64
2023/04/18 03:23:22;;;;;;;15.82;12.23;;;6.10;99.90;;;;;;5058335;28;20205;-64
2023/04/18 03:25:50;;;;;;;17.40;12.32;;;6.00;99.90;;;;;;5054026;28;20206;-64
2023/04/18 03:28:17;;;;;;;14.70;10.80;;;6.10;99.90;;;;;;5058144;28;20759;-64
2023/04/18 03:30:44;;;;;;;18.90;11.93;;;6.10;99.90;;;;;;5058811;28;20197;-65
2023/04/18 03:33:11;;;;;;;14.63;11.18;;;6.10;99.90;;;;;;5058983;28;20220;-64
2023/04/18 03:35:37;;;;;;;16.20;11.48;;;6.10;99.90;;;;;;5055175;28;20209;-64
2023/04/18 03:38:04;;;;;;;16.70;12.75;;;6.10;99.90;;;;;;5053801;28;20234;-64
2023/04/18 03:40:31;;;;;;;15.35;11.40;;;6.10;99.90;;;;;;5053415;28;20202;-65
2023/04/18 03:42:59;;;;;;;18.27;12.15;;;6.10;99.90;;;;;;5053499;28;20213;-64
2023/04/18 03:45:26;;;;;;;17.95;12.95;;;6.10;99.90;;;;;;5053515;28;20270;-63
2023/04/18 03:47:53;;;;;;;16.60;11.60;;;6.10;99.90;;;;;;5053495;28;20224;-64
2023/04/18 03:50:20;;;;;;;17.85;12.85;;;6.10;99.90;;;;;;5053816;28;20231;-65
2023/04/18 03:52:46;;;;;;;20.13;12.85;;;6.20;99.90;;;;;;5053781;28;20213;-64
2023/04/18 03:55:13;;;;;;;15.55;11.43;;;6.10;99.90;;;;;;5053266;28;20201;-63
2023/04/18 03:57:40;;;;;;;15.48;12.10;;;6.10;99.90;;;;;;5053370;28;20222;-64
2023/04/18 04:00:11;;;;;;;15.52;12.50;;;6.20;99.90;;;;;;5055410;28;20209;-64
2023/04/18 04:02:38;;;;;;;18.55;11.95;;;6.20;99.90;;;;;;5053053;28;20186;-63
2023/04/18 04:05:05;;;;;;;17.40;12.70;;;6.20;99.90;;;;;;5053733;28;20202;-64
2023/04/18 04:07:33;;;;;;;15.38;12.48;;;6.20;99.90;;;;;;5053319;28;20224;-64
2023/04/18 04:11:34;;;;;;;15.85;11.40;;;6.20;99.90;;;;;;5091415;28;21105;-64
2023/04/18 04:14:01;;;;;;;18.58;11.90;;;6.20;99.90;;;;;;5090935;28;20204;-65
2023/04/18 04:16:28;;;;;;;17.73;11.75;;;6.20;99.90;;;;;;5090895;28;20224;-64
2023/04/18 04:18:54;;;;;;;16.38;11.45;;;6.20;99.90;;;;;;5090963;28;20634;-64
2023/04/18 04:21:21;;;;;;;16.58;12.38;;;6.20;99.90;;;;;;5090966;28;20203;-64
2023/04/18 04:23:48;;;;;;;17.35;12.45;;;6.20;99.90;;;;;;5090906;28;20208;-64
2023/04/18 04:26:15;;;;;;;16.38;12.30;;;6.20;99.90;;;;;;5090766;28;20311;-64
2023/04/18 04:28:45;;;;;;;15.77;12.45;;;6.20;99.90;;;;;;5079868;22;20301;-61
2023/04/18 04:31:12;;;;;;;16.20;11.57;;;6.20;99.90;;;;;;5050727;28;20222;-60
2023/04/18 04:33:39;;;;;;;17.08;11.90;;;6.20;99.90;;;;;;5050959;28;20216;-61
2023/04/18 04:36:07;;;;;;;14.82;12.48;;;6.20;99.90;;;;;;5050562;28;20288;-61
2023/04/18 04:38:37;;;;;;;14.85;12.00;;;6.20;99.90;;;;;;5049995;28;20679;-61
2023/04/18 04:41:05;;;;;;;16.20;11.75;;;6.20;99.90;;;;;;5050379;28;20698;-60
2023/04/18 04:43:32;;;;;;;16.65;12.32;;;6.20;99.90;;;;;;5049961;28;20198;-61
2023/04/18 04:46:01;;;;;;;14.73;11.07;;;6.30;99.90;;;;;;5050923;28;20201;-61
2023/04/18 04:48:28;;;;;;;14.32;10.95;;;6.30;99.90;;;;;;5049996;28;20222;-61
2023/04/18 04:50:57;;;;;;;15.98;11.18;;;6.30;99.90;;;;;;5049772;28;20221;-61
2023/04/18 04:53:26;;;;;;;15.88;12.30;;;6.30;99.90;;;;;;5049997;28;20574;-62
2023/04/18 04:55:54;;;;;;;15.38;11.10;;;6.30;99.90;;;;;;5049852;28;20202;-62
2023/04/18 04:58:20;;;;;;;18.23;12.55;;;6.30;99.90;;;;;;5049567;28;20603;-62
2023/04/18 05:00:49;;;;;;;15.05;11.55;;;6.30;99.90;;;;;;5049444;28;20202;-63
2023/04/18 05:03:17;;;;;;;15.00;10.93;;;6.30;99.90;;;;;;5049872;28;20301;-61
2023/04/18 05:05:44;;;;;;;15.38;10.85;;;6.30;99.90;;;;;;5049761;28;20270;-61
2023/04/18 05:08:11;;;;;;;15.88;10.48;;;6.30;99.90;;;;;;5050276;28;20226;-61
2023/04/18 05:10:38;;;;;;;12.85;9.90;;;6.40;99.90;;;;;;5049486;28;20221;-62
2023/04/18 05:13:05;;;;;;;10.65;9.50;;;6.40;99.90;;;;;;5049903;28;20255;-61
2023/04/18 05:15:32;;;;;;;13.68;11.00;;;6.40;99.90;;;;;;5049777;28;20212;-63
2023/04/18 05:17:59;;;;;;;14.25;11.70;;;6.40;99.90;;;;;;5049417;28;20793;-63
2023/04/18 05:20:27;;;;;;;18.05;11.57;;;6.40;99.90;;;;;;5050048;28;20292;-63
2023/04/18 05:22:54;;;;;;;12.95;10.40;;;6.50;99.90;;;;;;5036373;28;20198;-63
2023/04/18 05:25:20;;;;;;;13.80;10.20;;;6.40;99.90;;;;;;5036321;28;20214;-62
2023/04/18 05:27:47;;;;;;;16.35;11.93;;;6.50;99.90;;;;;;5036052;28;20234;-60
2023/04/18 05:30:14;;;;;;;14.85;10.00;;;6.50;99.90;;;;;;5036328;28;20225;-61
2023/04/18 05:32:41;;;;;;;15.68;11.13;;;6.50;99.90;;;;;;5036333;28;20575;-62
2023/04/18 05:35:09;;;;;;;17.58;12.07;;;6.50;99.90;;;;;;5036436;28;20209;-62
2023/04/18 05:37:37;;;;;;;15.68;11.32;;;6.60;99.90;;;;;;5036586;28;20296;-61
2023/04/18 05:40:05;;;;;;;17.30;11.65;;;6.60;99.90;;;;;;5035680;28;20291;-62
2023/04/18 05:42:32;;;;;;;17.15;10.77;;;6.70;99.90;;;;;;5035730;28;20206;-63
2023/04/18 05:44:59;;;;;;;14.60;10.57;;;6.70;99.90;;;;;;5036151;28;20221;-62
2023/04/18 05:47:27;;;;;;;14.35;10.55;;;6.80;99.90;;;;;;5035425;28;20253;-61
2023/04/18 05:49:54;;;;;;;14.20;12.35;;;6.70;99.90;;;;;;5036203;28;20618;-61
2023/04/18 05:52:21;;;;;;;12.63;10.70;;;6.70;99.90;;;;;;5035817;28;20237;-60
2023/04/18 05:54:49;;;;;;;14.40;11.13;;;6.70;99.90;;;;;;5036543;28;20207;-62
2023/04/18 05:57:16;;;;;;;18.15;12.23;;;6.80;99.90;;;;;;5035969;28;20654;-62
2023/04/18 05:59:43;;;;;;;14.10;10.93;;;6.80;99.90;;;;;;5036007;28;20203;-63
2023/04/18 06:02:12;;;;;;;12.90;10.65;;;6.90;99.90;;;;;;5035930;28;20212;-62
2023/04/18 06:04:39;;;;;;;13.93;11.30;;;6.90;99.90;;;;;;5036157;28;20205;-62
2023/04/18 06:07:06;;;;;;;12.95;11.10;;;6.90;99.90;;;;;;5035617;28;20273;-61
2023/04/18 06:09:33;;;;;;;13.95;11.30;;;6.90;99.90;;;;;;5035128;28;20711;-64
2023/04/18 06:12:01;;;;;;;15.70;11.77;;;6.80;99.90;;;;;;5035768;28;20226;-62
2023/04/18 06:14:28;;;;;;;14.95;10.65;;;6.80;99.90;;;;;;5035539;28;20206;-63
2023/04/18 06:16:55;;;;;;;13.30;11.18;;;6.80;99.90;;;;;;5035061;28;20694;-62
2023/04/18 06:19:21;;;;;;;18.13;12.23;;;6.80;99.90;;;;;;5035764;28;20210;-62
2023/04/18 06:21:48;;;;;;;15.75;11.75;;;6.80;99.90;;;;;;5035539;28;20199;-64
2023/04/18 06:24:15;;;;;;;14.65;10.82;;;6.90;99.90;;;;;;5034758;28;20206;-63
2023/04/18 06:26:42;;;;;;;14.10;11.80;;;6.90;99.90;;;;;;5034956;28;20202;-63
2023/04/18 06:29:10;;;;;;;15.40;12.23;;;6.90;99.90;;;;;;5034763;28;20278;-63
2023/04/18 06:31:37;;;;;;;15.20;11.15;;;6.90;99.90;;;;;;5035506;28;20229;-63
2023/04/18 06:34:04;;;;;;;16.75;11.63;;;7.00;99.90;;;;;;5034092;28;20668;-62
2023/04/18 06:36:31;;;;;;;16.60;11.50;;;7.10;99.90;;;;;;5034573;28;20585;-61
2023/04/18 06:38:57;;;;;;;16.45;11.68;;;7.00;99.90;;;;;;5034951;28;20218;-62
2023/04/18 06:41:24;;;;;;;12.35;10.25;;;7.00;99.90;;;;;;5034679;28;20198;-61
2023/04/18 06:43:51;;;;;;;14.30;10.85;;;7.00;99.90;;;;;;5034214;28;20210;-63
2023/04/18 06:46:19;;;;;;;15.18;11.25;;;7.10;99.90;;;;;;5034906;28;20585;-63
2023/04/18 06:48:46;;;;;;;11.38;10.10;;;7.10;99.90;;;;;;5034498;28;20226;-63
2023/04/18 06:51:13;;;;;;;16.88;11.45;;;7.20;99.90;;;;;;5034429;28;20222;-62
2023/04/18 06:53:39;;;;;;;12.70;10.43;;;7.30;99.90;;;;;;5034418;28;20240;-62
2023/04/18 06:56:07;;;;;;;11.80;9.98;;;7.50;99.90;;;;;;5034406;28;20579;-63
2023/04/18 06:58:34;;;;;;;13.30;10.77;;;7.60;99.90;;;;;;5034121;28;20252;-61
2023/04/18 07:01:01;;;;;;;15.52;11.50;;;7.50;99.90;;;;;;5034176;28;20275;-62
2023/04/18 07:03:29;;;;;;;14.43;11.18;;;7.50;99.90;;;;;;5033928;28;20696;-63
2023/04/18 07:05:56;;;;;;;15.20;10.85;;;7.50;99.90;;;;;;5034339;28;20206;-63
2023/04/18 07:08:22;;;;;;;12.77;10.48;;;7.60;99.90;;;;;;5033908;28;20356;-63
2023/04/18 07:10:49;;;;;;;14.32;10.73;;;7.50;99.90;;;;;;5033973;28;20218;-63
2023/04/18 07:13:16;;;;;;;14.38;11.05;;;7.50;99.90;;;;;;5034492;28;20205;-62
2023/04/18 07:15:43;;;;;;;12.90;10.85;;;7.40;99.90;;;;;;5034639;28;20664;-61
2023/04/18 07:18:10;;;;;;;14.48;11.05;;;7.50;99.90;;;;;;5034102;28;20222;-62
2023/04/18 07:20:38;;;;;;;13.52;11.35;;;7.50;99.90;;;;;;5034113;28;20213;-64
2023/04/18 07:23:05;;;;;;;15.60;10.30;;;7.50;99.90;;;;;;5034044;28;20234;-62
2023/04/18 07:25:32;;;;;;;15.15;10.43;;;7.50;99.90;;;;;;5033963;28;20206;-62
2023/04/18 07:27:59;;;;;;;13.13;11.15;;;7.60;99.90;;;;;;5033602;28;20240;-63
2023/04/18 07:30:26;;;;;;;16.30;10.57;;;7.70;99.90;;;;;;5034513;28;20212;-63
2023/04/18 07:32:53;;;;;;;13.15;10.52;;;7.70;99.90;;;;;;5034416;28;20202;-63
2023/04/18 07:35:20;;;;;;;14.38;11.10;;;7.60;99.90;;;;;;5034201;28;20208;-63
2023/04/18 07:37:48;;;;;;;15.02;10.85;;;7.70;99.90;;;;;;5033800;28;20222;-62
2023/04/18 07:40:16;;;;;;;20.20;12.18;;;7.70;99.90;;;;;;5033872;28;20198;-62
2023/04/18 07:42:43;;;;;;;13.75;10.82;;;7.70;99.90;;;;;;5034378;28;20726;-61
2023/04/18 07:45:10;;;;;;;14.32;12.23;;;7.70;99.90;;;;;;5033715;28;20260;-62
2023/04/18 07:47:37;;;;;;;15.13;11.68;;;7.70;99.90;;;;;;5034539;28;20229;-63
2023/04/18 07:50:04;;;;;;;13.13;11.55;;;7.70;99.90;;;;;;5034235;28;20277;-63
2023/04/18 07:52:31;;;;;;;12.50;11.20;;;7.70;99.90;;;;;;5033755;28;20309;-63
2023/04/18 07:54:59;;;;;;;15.77;11.13;;;7.80;99.90;;;;;;5033660;28;20209;-62
2023/04/18 07:57:26;;;;;;;12.70;10.52;;;8.00;99.90;;;;;;5033271;28;20237;-62
2023/04/18 07:59:53;;;;;;;16.35;11.50;;;8.00;99.90;;;;;;5033361;28;20208;-63
2023/04/18 08:02:20;;;;;;;16.08;11.20;;;8.20;99.90;;;;;;5034803;28;20730;-63
2023/04/18 08:04:48;;;;;;;14.07;10.82;;;8.30;99.90;;;;;;5033362;28;20208;-62
2023/04/18 08:07:15;;;;;;;14.18;10.55;;;8.50;99.90;;;;;;5033783;28;20312;-63
2023/04/18 08:09:42;;;;;;;11.70;10.20;;;8.70;99.90;;;;;;5033366;28;20213;-63
2023/04/18 08:12:10;;;;;;;12.15;9.32;;;8.90;99.90;;;;;;5033225;28;20222;-62
2023/04/18 08:14:37;;;;;;;12.25;10.25;;;9.10;99.90;;;;;;5033147;28;20289;-63
2023/04/18 08:17:04;;;;;;;13.32;10.38;;;9.20;99.90;;;;;;5032771;28;20253;-62
2023/04/18 08:19:30;;;;;;;12.68;9.02;;;9.20;99.90;;;;;;5033314;28;20251;-62
2023/04/18 08:22:07;;;;;;;13.95;9.88;;;9.30;99.90;;;;;;5032821;28;20234;-62
2023/04/18 08:24:34;;;;;;;10.02;9.02;;;9.40;99.90;;;;;;5033264;28;20183;-62
2023/04/18 08:27:02;;;;;;;9.20;8.30;;;9.50;99.90;;;;;;5033441;28;20236;-63
2023/04/18 08:29:30;;;;;;;12.40;9.70;;;9.40;99.90;;;;;;5033598;28;20559;-65
2023/04/18 08:31:57;;;;;;;12.80;9.85;;;9.40;99.90;;;;;;5033725;28;20700;-63
2023/04/18 08:34:24;;;;;;;13.40;10.85;;;9.40;99.90;;;;;;5033543;28;20210;-63
2023/04/18 08:36:51;;;;;;;11.03;9.63;;;9.50;99.90;;;;;;5033305;28;20209;-61
2023/04/18 08:39:18;;;;;;;12.83;9.77;;;9.70;99.90;;;;;;5033429;28;20455;-63
2023/04/18 08:41:53;;;;;;;10.67;9.30;;;9.90;99.90;;;;;;5034048;28;20986;-61
2023/04/18 08:44:20;;;;;;;10.40;8.53;;;10.10;99.90;;;;;;5033411;28;20425;-63
2023/04/18 08:46:48;;;;;;;9.27;7.67;;;10.20;99.10;;;;;;5032828;28;20939;-62
2023/04/18 08:49:16;;;;;;;10.10;7.67;;;10.10;98.20;;;;;;5032898;28;20456;-60
2023/04/18 08:51:44;;;;;;;12.82;9.45;;;10.10;98.10;;;;;;5033162;28;20484;-62
2023/04/18 08:54:11;;;;;;;10.07;8.47;;;10.30;98.50;;;;;;5033216;28;20202;-62
2023/04/18 08:56:39;;;;;;;10.80;8.87;;;10.70;97.80;;;;;;5033885;28;20437;-63
2023/04/18 08:59:06;;;;;;;10.43;8.77;;;11.10;96.10;;;;;;5037422;28;20453;-63
2023/04/18 09:01:56;;;;;;;10.80;9.40;;;11.20;94.60;;;;;;5038374;28;20484;-63
2023/04/18 09:04:34;;;;;;;8.87;7.97;;;11.30;93.70;;;;;;5037221;28;20449;-63
2023/04/18 09:07:01;;;;;;;8.80;7.90;;;11.00;92.80;;;;;;5037702;28;20473;-63
2023/04/18 09:09:28;;;;;;;7.27;6.30;;;10.80;93.20;;;;;;5037408;28;20831;-63
2023/04/18 09:12:06;;;;;;;12.80;8.10;;;10.70;93.60;;;;;;5036450;28;20507;-63
2023/04/18 09:14:35;;;;;;;9.77;7.30;;;10.90;93.50;;;;;;5036938;28;20953;-61
2023/04/18 09:17:05;;;;;;;8.13;7.17;;;11.10;93.00;;;;;;5036514;28;20460;-63
2023/04/18 09:19:32;;;;;;;7.97;7.17;;;11.40;92.50;;;;;;5036380;28;21005;-62
2023/04/18 09:22:01;;;;;;;8.60;7.60;;;11.70;90.70;;;;;;5036652;28;20453;-63
2023/04/18 09:24:29;;;;;;;9.00;7.80;;;11.90;87.90;;;;;;5036013;28;20445;-63
2023/04/18 09:26:58;;;;;;;6.27;5.67;;;12.00;86.20;;;;;;5035676;28;20495;-63
2023/04/18 09:29:45;;;;;;;8.13;7.03;;;12.10;85.50;;;;;;5036116;28;20495;-62
2023/04/18 09:32:22;;;;;;;10.03;6.97;;;12.10;84.00;;;;;;5036440;28;20500;-63
2023/04/18 09:34:50;;;;;;;8.77;7.40;;;12.00;82.10;;;;;;5037047;28;20447;-63
2023/04/18 09:37:17;;;;;;;9.40;8.07;;;11.80;82.10;;;;;;5035938;28;20464;-62
2023/04/18 09:39:44;;;;;;;9.53;7.17;;;11.60;83.20;;;;;;5036183;28;20445;-64
2023/04/18 09:42:11;;;;;;;8.73;6.87;;;11.50;84.40;;;;;;5035366;28;20507;-61
2023/04/18 09:44:38;;;;;;;8.57;7.67;;;11.50;84.10;;;;;;5036156;28;20471;-62
2023/04/18 09:47:06;;;;;;;9.53;7.87;;;11.50;84.50;;;;;;5035552;28;20874;-63
2023/04/18 09:49:34;;;;;;;8.53;7.67;;;11.50;84.00;;;;;;5035439;28;20537;-63
2023/04/18 09:52:06;;;;;;;8.47;7.03;;;11.60;85.10;;;;;;5036022;28;20485;-62
2023/04/18 09:54:36;;;;;;;9.77;7.70;;;11.70;84.10;;;;;;5036062;28;20431;-62
2023/04/18 09:57:06;;;;;;;9.17;8.27;;;11.80;82.30;;;;;;5035492;28;20501;-63
2023/04/18 09:59:41;;;;;;;8.53;7.63;;;11.80;81.20;;;;;;5035478;28;20429;-63
2023/04/18 10:02:15;;;;;;;8.00;7.20;;;11.80;80.60;;;;;;5035850;28;20448;-61
2023/04/18 10:04:45;;;;;;;7.77;6.47;;;11.80;81.10;;;;;;5035982;28;20511;-61
2023/04/18 10:07:12;;;;;;;6.87;5.50;;;11.80;79.70;;;;;;5035350;28;20468;-62
2023/04/18 10:09:43;;;;;;;10.23;6.33;;;11.70;78.70;;;;;;5035111;28;20453;-62
2023/04/18 10:12:12;;;;;;;8.30;6.87;;;11.60;78.80;;;;;;5034943;28;20465;-61
2023/04/18 10:14:41;;;;;;;7.63;6.93;;;11.60;80.30;;;;;;5034796;28;20588;-64
2023/04/18 10:17:08;;;;;;;7.33;6.33;;;11.90;78.80;;;;;;5034808;28;20975;-63
2023/04/18 10:19:37;;;;;;;7.03;6.33;;;12.20;77.10;;;;;;5035102;28;20453;-63
2023/04/18 10:22:05;;;;;;;10.07;7.93;;;12.30;74.90;;;;;;5035208;28;20484;-62
2023/04/18 10:24:49;;;;;;;9.17;6.50;;;12.30;74.20;;;;;;5035231;28;20538;-62
2023/04/18 10:29:53;;;;;;;7.27;5.77;;;12.10;73.30;;;;;;5055629;28;20475;-66
2023/04/18 10:32:23;;;;;;;7.10;6.17;;;12.00;72.70;;;;;;5056825;28;20471;-64
2023/04/18 10:34:52;;;;;;;7.40;6.57;;;11.90;72.70;;;;;;5056142;28;20863;-67
2023/04/18 10:37:20;;;;;;;7.80;7.00;;;11.90;73.20;;;;;;5055961;28;20942;-65
2023/04/18 10:39:56;;;;;;;7.37;6.60;;;12.10;72.40;;;;;;5055056;28;20797;-65
2023/04/18 10:46:11;;;;;;;8.77;6.80;;;12.30;70.90;;;;;;5050498;28;20459;-63
2023/04/18 10:48:38;;;;;;;6.37;5.60;;;12.40;69.70;;;;;;5057340;28;20495;-63
2023/04/18 10:51:15;;;;;;;6.40;5.80;;;12.40;68.90;;;;;;5059777;28;20448;-64
2023/04/18 10:53:51;;;;;;;7.23;6.53;;;12.50;68.10;;;;;;5056235;28;20448;-65
2023/04/18 10:56:18;;;;;;;6.33;5.47;;;12.40;67.30;;;;;;5054321;28;20438;-66
2023/04/18 10:58:50;;;;;;;6.60;5.97;;;12.40;67.30;;;;;;5054213;28;20468;-65
2023/04/18 11:01:26;;;;;;;6.80;6.03;;;12.40;67.70;;;;;;5054529;28;20437;-64
2023/04/18 11:03:54;;;;;;;8.70;5.50;;;12.40;67.00;;;;;;5054721;28;20433;-65
2023/04/18 11:06:21;;;;;;;6.27;5.67;;;12.50;66.80;;;;;;5054998;28;20444;-67
2023/04/18 11:08:50;;;;;;;6.60;5.93;;;12.70;66.40;;;;;;5054622;28;20491;-65
2023/04/18 11:11:17;;;;;;;7.30;6.60;;;12.80;65.70;;;;;;5054743;28;20450;-68
2023/04/18 11:13:57;;;;;;;6.43;5.83;;;12.80;64.90;;;;;;5055337;28;20450;-66
2023/04/18 11:16:27;;;;;;;6.83;6.13;;;12.70;64.80;;;;;;5054812;28;20440;-66
2023/04/18 11:18:55;;;;;;;7.10;6.20;;;12.70;65.10;;;;;;5054315;28;20531;-67
2023/04/18 11:21:21;;;;;;;6.40;5.60;;;12.70;65.00;;;;;;5054722;28;20494;-65
2023/04/18 11:23:50;;;;;;;7.10;5.53;;;12.80;63.80;;;;;;5054330;28;20444;-64
2023/04/18 11:26:18;;;;;;;6.23;5.63;;;12.90;63.30;;;;;;5054311;28;20448;-64
2023/04/18 11:28:51;;;;;;;8.90;6.00;;;13.00;62.50;;;;;;5053846;28;20537;-65
2023/04/18 11:31:17;;;;;;;7.00;6.30;;;13.00;61.60;;;;;;5058548;28;20482;-64
2023/04/18 11:33:46;;;;;;;7.50;5.90;;;13.00;61.60;;;;;;5054055;28;20479;-66
2023/04/18 11:36:13;;;;;;;6.37;5.67;;;13.00;61.40;;;;;;5054388;28;20451;-66
2023/04/18 11:38:41;;;;;;;6.13;5.53;;;13.20;61.60;;;;;;5053970;28;20456;-66
2023/04/18 11:41:14;;;;;;;7.00;5.33;;;13.40;61.00;;;;;;5053580;28;20440;-63
2023/04/18 11:43:43;;;;;;;8.67;5.80;;;13.50;60.20;;;;;;5053733;28;20508;-64
2023/04/18 11:46:22;;;;;;;7.27;6.40;;;13.50;59.70;;;;;;5058147;28;20443;-64
2023/04/18 11:48:49;;;;;;;6.13;5.57;;;13.50;59.40;;;;;;5054030;28;20459;-65
2023/04/18 11:51:37;;;;;;;6.50;5.90;;;13.40;59.00;;;;;;5054286;28;20482;-65
2023/04/18 11:54:04;;;;;;;6.77;6.17;;;13.30;59.30;;;;;;5053088;28;20920;-65
2023/04/18 11:56:32;;;;;;;8.03;6.80;;;13.40;59.30;;;;;;5053535;28;20938;-66
2023/04/18 11:58:59;;;;;;;7.83;6.90;;;13.20;58.70;;;;;;5053659;28;20550;-65
2023/04/18 12:01:26;;;;;;;7.20;6.50;;;13.10;58.90;;;;;;5053544;28;20444;-65
2023/04/18 12:04:03;;;;;;;7.23;5.80;;;13.10;59.30;;;;;;5053951;28;20451;-66
2023/04/18 12:06:45;;;;;;;8.40;7.07;;;13.50;59.00;;;;;;5054005;28;20961;-65
2023/04/18 12:09:13;;;;;;;8.70;6.97;;;14.10;57.30;;;;;;5054405;28;20468;-66
2023/04/18 12:11:42;;;;;;;7.50;6.03;;;14.00;55.90;;;;;;5056514;28;20443;-65
2023/04/18 12:14:20;;;;;;;9.53;6.30;;;13.80;56.20;;;;;;5053446;28;20450;-66
2023/04/18 12:16:49;;;;;;;8.20;6.23;;;13.90;57.00;;;;;;5053540;28;20428;-67
2023/04/18 12:19:16;;;;;;;6.87;6.03;;;14.40;56.20;;;;;;5052929;28;20467;-66
2023/04/18 12:21:55;;;;;;;6.33;5.73;;;14.80;54.60;;;;;;5053610;28;20532;-66
2023/04/18 12:24:24;;;;;;;6.13;5.53;;;14.90;53.80;;;;;;5054048;28;20535;-66
2023/04/18 12:26:52;;;;;;;6.80;6.10;;;14.90;53.70;;;;;;5054311;28;20436;-65
2023/04/18 12:29:19;;;;;;;6.33;5.73;;;14.80;53.80;;;;;;5053389;28;20468;-65
2023/04/18 12:31:47;;;;;;;7.23;6.30;;;14.70;53.90;;;;;;5056104;28;20448;-66
2023/04/18 12:34:14;;;;;;;8.00;7.03;;;14.50;54.00;;;;;;5058630;28;20493;-67
2023/04/18 12:36:40;;;;;;;7.13;6.43;;;14.50;54.50;;;;;;5057722;28;20494;-66
2023/04/18 12:39:07;;;;;;;8.63;6.63;;;14.50;54.60;;;;;;5057926;28;20547;-65
2023/04/18 12:41:35;;;;;;;7.03;6.10;;;14.60;54.50;;;;;;5058173;28;20460;-66
2023/04/18 12:44:03;;;;;;;6.37;5.77;;;14.40;54.20;;;;;;5057634;28;20445;-65
2023/04/18 12:46:33;;;;;;;6.47;5.80;;;14.20;54.80;;;;;;5058860;28;20545;-61
2023/04/18 12:49:00;;;;;;;6.33;5.73;;;13.90;54.90;;;;;;5057351;28;20467;-68
2023/04/18 12:51:27;;;;;;;9.17;5.73;;;13.70;55.40;;;;;;5057778;28;20444;-64
2023/04/18 12:53:55;;;;;;;5.80;5.20;;;13.70;55.50;;;;;;5058100;28;20816;-64
2023/04/18 12:56:22;;;;;;;6.47;5.87;;;13.60;55.60;;;;;;5057506;28;20886;-64